Time;durP1;ratioP1;P1;durP2;ratioP2;P2;SDS_P1;SDS_P2;PMS_P1;PMS_P2;Temp;Humidity;BMP_temperature;BMP_pressure;BME280_temperature;BME280_humidity;BME280_pressure;Samples;Min_cycle;Max_cycle;Signal;HPM_P1;HPM_P2
2021/11/17 02:25:51;;;;;;;;;;;6.30;99.90;;;;;;5094268;28;19911;-85
2021/11/17 02:28:17;;;;;;;;;;;6.30;99.90;;;;;;5089658;28;19904;-84
2021/11/17 02:31:15;;;;;;;;;;;6.30;99.90;;;;;;5093209;28;19904;-84
2021/11/17 02:33:41;;;;;;;;;;;6.20;99.90;;;;;;5049062;28;19904;-84
2021/11/17 02:36:19;;;;;;;;;;;6.10;99.90;;;;;;5088059;28;19919;-84
2021/11/17 02:38:51;;;;;;;;;;;6.20;99.90;;;;;;5076243;28;19916;-84
2021/11/17 02:41:26;;;;;;;;;;;6.20;99.90;;;;;;5093064;28;19904;-84
2021/11/17 02:44:08;;;;;;;;;;;6.30;99.90;;;;;;5076204;28;19904;-84
2021/11/17 02:46:43;;;;;;;;;;;6.30;99.90;;;;;;5076074;28;20399;-84
2021/11/17 02:49:14;;;;;;;;;;;6.30;99.90;;;;;;5088066;28;20228;-84
2021/11/17 02:51:40;;;;;;;;;;;6.20;99.90;;;;;;5093187;28;20009;-84
2021/11/17 02:54:05;;;;;;;;;;;6.20;99.90;;;;;;5088066;28;20351;-84
2021/11/17 02:56:31;;;;;;;;;;;6.10;99.90;;;;;;5092996;28;19930;-85
2021/11/17 02:59:02;;;;;;;;;;;6.10;99.90;;;;;;5086439;28;20355;-84
2021/11/17 03:01:40;;;;;;;;;;;6.00;99.90;;;;;;5092632;28;19910;-84
2021/11/17 03:04:15;;;;;;;;;;;6.10;99.90;;;;;;5070657;28;19904;-85
2021/11/17 03:06:41;;;;;;;;;;;6.20;99.90;;;;;;5092815;28;19992;-84
2021/11/17 03:09:16;;;;;;;;;;;6.20;99.90;;;;;;5087495;28;19922;-84
2021/11/17 03:12:04;;;;;;;;;;;6.20;99.90;;;;;;5075835;28;19911;-84
2021/11/17 03:14:42;;;;;;;;;;;6.10;99.90;;;;;;5073895;28;19904;-84
2021/11/17 03:17:07;;;;;;;;;;;6.10;99.90;;;;;;5093744;28;19904;-85
2021/11/17 03:19:38;;;;;;;;;;;5.90;99.90;;;;;;5091001;28;20371;-84
2021/11/17 03:22:22;;;;;;;;;;;6.00;99.90;;;;;;5093450;28;19916;-85
2021/11/17 03:24:47;;;;;;;;;;;6.00;99.90;;;;;;5084632;28;19904;-84
2021/11/17 03:27:16;;;;;;;;;;;6.00;99.90;;;;;;5092376;28;19927;-84
2021/11/17 03:30:09;;;;;;;;;;;6.00;99.90;;;;;;5095589;28;19903;-84
2021/11/17 03:32:48;;;;;;;;;;;5.90;99.90;;;;;;5078928;28;20397;-85
2021/11/17 03:35:14;;;;;;;;;;;6.00;99.90;;;;;;5095831;28;19904;-85
2021/11/17 03:37:48;;;;;;;;;;;6.00;99.90;;;;;;5094831;28;19904;-84
2021/11/17 03:40:17;;;;;;;;;;;6.10;99.90;;;;;;5095561;28;19908;-85
2021/11/17 03:42:44;;;;;;;;;;;6.10;99.90;;;;;;5095562;28;19998;-85
2021/11/17 03:45:10;;;;;;;;;;;6.20;99.90;;;;;;5095511;28;20033;-85
2021/11/17 03:47:35;;;;;;;;;;;6.20;99.90;;;;;;5095538;28;20360;-84
2021/11/17 03:50:04;;;;;;;;;;;6.20;99.90;;;;;;5095452;28;20308;-84
2021/11/17 03:52:52;;;;;;;;;;;6.20;99.90;;;;;;5113802;28;19912;-84
2021/11/17 03:55:30;;;;;;;;;;;6.10;99.90;;;;;;5095544;28;19907;-85
2021/11/17 03:58:14;;;;;;;;;;;6.10;99.90;;;;;;5078608;28;19907;-85
2021/11/17 04:00:44;;;;;;;;;;;6.20;99.90;;;;;;5095441;28;19908;-85
2021/11/17 04:03:36;;;;;;;;;;;6.20;99.90;;;;;;5095324;28;19914;-85
2021/11/17 04:06:24;;;;;;;;;;;6.20;99.90;;;;;;5090394;28;19904;-85
2021/11/17 04:09:00;;;;;;;;;;;6.20;99.90;;;;;;5078504;28;19949;-85
2021/11/17 04:11:50;;;;;;;;;;;6.20;99.90;;;;;;5078465;28;19908;-85
2021/11/17 04:14:25;;;;;;;;;;;6.20;99.90;;;;;;5095511;28;19915;-85
2021/11/17 04:17:05;;;;;;;;;;;6.10;99.90;;;;;;5095401;28;19911;-85
2021/11/17 04:19:31;;;;;;;;;;;6.10;99.90;;;;;;5079218;28;19907;-84
2021/11/17 04:22:00;;;;;;;;;;;6.10;99.90;;;;;;5095525;28;19991;-84
2021/11/17 04:24:42;;;;;;;;;;;6.10;99.90;;;;;;5095552;28;20278;-85
2021/11/17 04:27:34;;;;;;;;;;;6.20;99.90;;;;;;5078760;28;19911;-85
2021/11/17 04:30:18;;;;;;;;;;;6.10;99.90;;;;;;5077163;28;19953;-85
2021/11/17 04:32:43;;;;;;;;;;;6.10;99.90;;;;;;5095174;28;19925;-85
2021/11/17 04:35:29;;;;;;;;;;;6.10;99.90;;;;;;5095117;28;20414;-85
2021/11/17 04:37:55;;;;;;;;;;;6.10;99.90;;;;;;5078460;28;19907;-85
2021/11/17 04:40:39;;;;;;;;;;;6.00;99.90;;;;;;5094998;28;19915;-85
2021/11/17 04:43:11;;;;;;;;;;;6.10;99.90;;;;;;5095023;28;19974;-85
2021/11/17 04:45:42;;;;;;;;;;;6.00;99.90;;;;;;5095028;28;20355;-85
2021/11/17 04:48:18;;;;;;;;;;;6.00;99.90;;;;;;5096323;28;20377;-85
2021/11/17 04:51:02;;;;;;;;;;;6.00;99.90;;;;;;5081710;28;19903;-85
2021/11/17 04:53:57;;;;;;;;;;;6.10;99.90;;;;;;5098528;28;20015;-85
2021/11/17 04:56:29;;;;;;;;;;;6.00;99.90;;;;;;5067333;28;20340;-85
2021/11/17 04:59:16;;;;;;;;;;;5.90;99.90;;;;;;5081478;28;20102;-85
2021/11/17 05:01:48;;;;;;;;;;;5.80;99.90;;;;;;5098750;28;20351;-85
2021/11/17 05:04:14;;;;;;;;;;;5.90;99.90;;;;;;5081526;28;19904;-85
2021/11/17 05:06:39;;;;;;;;;;;6.00;99.90;;;;;;5098586;28;19914;-85
2021/11/17 05:09:05;;;;;;;;;;;6.00;99.90;;;;;;5098223;28;19908;-85
2021/11/17 05:11:33;;;;;;;;;;;5.90;99.90;;;;;;5098134;28;20377;-85
2021/11/17 05:13:59;;;;;;;;;;;6.00;99.90;;;;;;5116691;28;19904;-85
2021/11/17 05:16:30;;;;;;;;;;;6.10;99.90;;;;;;5116430;28;19956;-84
2021/11/17 05:19:15;;;;;;;;;;;5.90;99.90;;;;;;5097948;28;20248;-85
2021/11/17 05:21:49;;;;;;;;;;;5.90;99.90;;;;;;5097726;28;19908;-85
2021/11/17 05:24:18;;;;;;;;;;;5.90;99.90;;;;;;5097981;28;19911;-85
2021/11/17 05:26:47;;;;;;;;;;;6.00;99.90;;;;;;5097863;28;19907;-85
2021/11/17 05:29:12;;;;;;;;;;;6.00;99.90;;;;;;5097871;28;19999;-85
2021/11/17 05:31:44;;;;;;;;;;;6.00;99.90;;;;;;5097808;28;19939;-85
2021/11/17 05:34:16;;;;;;;;;;;6.10;99.90;;;;;;5080977;28;20397;-85
2021/11/17 05:36:48;;;;;;;;;;;6.00;99.90;;;;;;5080900;28;19912;-85
2021/11/17 05:39:16;;;;;;;;;;;6.00;99.90;;;;;;5097778;28;19951;-85
2021/11/17 05:42:05;;;;;;;;;;;6.00;99.90;;;;;;5097619;28;19903;-85
2021/11/17 05:44:31;;;;;;;;;;;6.00;99.90;;;;;;5075181;28;19926;-85
2021/11/17 05:47:02;;;;;;;;;;;6.00;99.90;;;;;;5097734;28;19904;-85
2021/11/17 05:49:34;;;;;;;;;;;6.00;99.90;;;;;;5097454;28;20251;-85
2021/11/17 05:52:06;;;;;;;;;;;6.10;99.90;;;;;;5097529;28;19952;-85
2021/11/17 05:54:42;;;;;;;;;;;6.00;99.90;;;;;;5097345;28;20320;-85
2021/11/17 05:57:07;;;;;;;;;;;6.10;99.90;;;;;;5080443;28;19904;-85
2021/11/17 05:59:42;;;;;;;;;;;6.10;99.90;;;;;;5096510;28;19915;-85
2021/11/17 06:02:23;;;;;;;;;;;6.00;99.90;;;;;;5097205;28;19965;-85
2021/11/17 06:04:48;;;;;;;;;;;6.10;99.90;;;;;;5097305;28;19934;-85
2021/11/17 06:07:14;;;;;;;;;;;6.10;99.90;;;;;;5097643;28;19907;-85
2021/11/17 06:09:39;;;;;;;;;;;6.20;99.90;;;;;;5097110;28;19904;-85
2021/11/17 06:12:07;;;;;;;;;;;6.20;99.90;;;;;;5096961;28;19943;-85
2021/11/17 06:14:35;;;;;;;;;;;6.30;99.90;;;;;;5097022;28;19965;-86
2021/11/17 06:17:13;;;;;;;;;;;6.20;99.90;;;;;;5096881;28;19943;-85
2021/11/17 06:19:41;;;;;;;;;;;6.20;99.90;;;;;;5115065;28;19907;-85
2021/11/17 06:22:08;;;;;;;;;;;6.20;99.90;;;;;;5096611;28;19911;-85
2021/11/17 06:24:34;;;;;;;;;;;6.20;99.90;;;;;;5097000;28;20378;-85
2021/11/17 06:27:03;;;;;;;;;;;6.20;99.90;;;;;;5114958;28;19904;-86
2021/11/17 06:29:34;;;;;;;;;;;6.20;99.90;;;;;;5116687;28;20313;-85
2021/11/17 06:32:00;;;;;;;;;;;6.20;99.90;;;;;;5116758;28;19904;-86
2021/11/17 06:34:41;;;;;;;;;;;6.20;99.90;;;;;;5097019;28;19919;-86
2021/11/17 06:37:10;;;;;;;;;;;6.10;99.90;;;;;;5096976;28;19980;-86
2021/11/17 06:39:37;;;;;;;;;;;6.10;99.90;;;;;;5097511;28;19914;-86
2021/11/17 06:42:04;;;;;;;;;;;6.10;99.90;;;;;;5096537;28;19904;-86
2021/11/17 06:44:30;;;;;;;;;;;6.10;99.90;;;;;;5096364;28;20282;-86
2021/11/17 06:46:56;;;;;;;;;;;6.10;99.90;;;;;;5096427;28;19907;-86
2021/11/17 06:49:21;;;;;;;;;;;6.00;99.90;;;;;;5096291;28;19910;-86
2021/11/17 06:51:47;;;;;;;;;;;6.10;99.90;;;;;;5096387;28;19911;-86
2021/11/17 06:54:13;;;;;;;;;;;6.00;99.90;;;;;;5096265;28;19904;-86
2021/11/17 06:56:38;;;;;;;;;;;6.00;99.90;;;;;;5096166;28;19907;-86
2021/11/17 06:59:04;;;;;;;;;;;6.10;99.90;;;;;;5096341;28;19922;-86
2021/11/17 07:01:30;;;;;;;;;;;6.10;99.90;;;;;;5114689;28;19926;-86
2021/11/17 07:03:55;;;;;;;;;;;6.00;99.90;;;;;;5114363;28;19969;-86
2021/11/17 07:06:21;;;;;;;;;;;6.10;99.90;;;;;;5096031;28;20268;-86
2021/11/17 07:08:47;;;;;;;;;;;6.10;99.90;;;;;;5096683;28;19904;-86
2021/11/17 07:11:12;;;;;;;;;;;6.00;99.90;;;;;;5095162;28;20321;-86
2021/11/17 07:13:38;;;;;;;;;;;5.90;99.90;;;;;;5095938;28;19919;-86
2021/11/17 07:16:04;;;;;;;;;;;6.10;99.90;;;;;;5095932;28;20282;-86
2021/11/17 07:18:29;;;;;;;;;;;6.10;99.90;;;;;;5095845;28;20358;-86
2021/11/17 07:20:55;;;;;;;;;;;6.10;99.90;;;;;;5095808;28;19907;-85
2021/11/17 07:23:21;;;;;;;;;;;6.10;99.90;;;;;;5095687;28;19922;-86
2021/11/17 07:25:46;;;;;;;;;;;6.20;99.90;;;;;;5114035;28;19993;-86
2021/11/17 07:28:12;;;;;;;;;;;6.30;99.90;;;;;;5113954;28;20037;-86
2021/11/17 07:30:40;;;;;;;;;;;6.20;99.90;;;;;;5095786;28;19911;-86
2021/11/17 07:33:06;;;;;;;;;;;6.20;99.90;;;;;;5115477;28;19911;-86
2021/11/17 07:35:33;;;;;;;;;;;6.20;99.90;;;;;;5097862;28;20341;-87
2021/11/17 07:38:01;;;;;;;;;;;6.20;99.90;;;;;;5097683;28;19904;-86
2021/11/17 07:40:30;;;;;;;;;;;6.10;99.90;;;;;;5097625;28;19914;-86
2021/11/17 07:42:56;;;;;;;;;;;6.20;99.90;;;;;;5097393;28;19908;-86
2021/11/17 07:45:22;;;;;;;;;;;6.20;99.90;;;;;;5096748;28;20385;-88
2021/11/17 07:47:47;;;;;;;;;;;6.10;99.90;;;;;;5098421;28;19957;-88
2021/11/17 07:50:13;;;;;;;;;;;6.10;99.90;;;;;;5098417;28;19949;-88
2021/11/17 07:52:38;;;;;;;;;;;6.00;99.90;;;;;;5098984;28;20060;-89
2021/11/17 07:55:06;;;;;;;;;;;6.00;99.90;;;;;;5098286;28;19907;-88
2021/11/17 07:57:32;;;;;;;;;;;6.00;99.90;;;;;;5098355;28;19953;-88
2021/11/17 07:59:58;;;;;;;;;;;6.20;99.90;;;;;;5097821;28;20110;-87
2021/11/17 08:02:24;;;;;;;;;;;6.20;99.90;;;;;;5097591;28;19943;-90
2021/11/17 08:04:49;;;;;;;;;;;6.10;99.90;;;;;;5098338;28;20271;-90
2021/11/17 08:07:19;;;;;;;;;;;6.10;99.90;;;;;;5098544;28;19999;-88
2021/11/17 08:09:45;;;;;;;;;;;6.20;99.90;;;;;;5097944;28;19904;-89
2021/11/17 08:12:10;;;;;;;;;;;6.10;99.90;;;;;;5097961;28;20335;-89
2021/11/17 08:14:36;;;;;;;;;;;6.20;99.90;;;;;;5097937;28;20007;-89
2021/11/17 08:17:02;;;;;;;;;;;6.20;99.90;;;;;;5097582;28;20255;-89
2021/11/17 08:19:27;;;;;;;;;;;6.20;99.90;;;;;;5097474;28;20274;-89
2021/11/17 08:21:53;;;;;;;;;;;6.30;99.90;;;;;;5097313;28;19908;-89
2021/11/17 08:24:19;;;;;;;;;;;6.30;99.90;;;;;;5103356;28;20427;-89
2021/11/17 08:26:44;;;;;;;;;;;6.30;99.90;;;;;;5102849;28;19946;-89
2021/11/17 08:29:10;;;;;;;;;;;6.30;99.90;;;;;;5101304;28;20373;-89
2021/11/17 08:31:37;;;;;;;;;;;6.20;99.90;;;;;;5101639;28;19991;-89
2021/11/17 08:34:02;;;;;;;;;;;6.30;99.90;;;;;;5101189;28;19903;-89
2021/11/17 08:36:29;;;;;;;;;;;6.40;99.90;;;;;;5101948;28;19911;-89
2021/11/17 08:38:55;;;;;;;;;;;6.30;99.90;;;;;;5102721;28;19941;-89
2021/11/17 08:41:22;;;;;;;;;;;6.30;99.90;;;;;;5110046;28;19911;-89
2021/11/17 08:43:48;;;;;;;;;;;6.40;99.90;;;;;;5108187;28;19948;-89
2021/11/17 08:46:13;;;;;;;;;;;6.30;99.90;;;;;;5102051;28;19911;-89
2021/11/17 08:48:40;;;;;;;;;;;6.30;99.90;;;;;;5101843;28;20252;-89
2021/11/17 08:51:08;;;;;;;;;;;6.20;99.90;;;;;;5100668;28;19907;-89
2021/11/17 08:53:35;;;;;;;;;;;6.30;99.90;;;;;;5101224;28;19907;-89
2021/11/17 08:56:02;;;;;;;;;;;6.30;99.90;;;;;;5101134;28;19910;-88
2021/11/17 08:58:28;;;;;;;;;;;6.30;99.90;;;;;;5101564;28;20425;-89
2021/11/17 09:00:54;;;;;;;;;;;6.30;99.90;;;;;;5101673;28;19903;-88
2021/11/17 09:03:20;;;;;;;;;;;6.20;99.90;;;;;;5101408;28;19911;-89
2021/11/17 09:05:47;;;;;;;;;;;6.30;99.90;;;;;;5100865;28;19908;-88
2021/11/17 09:08:13;;;;;;;;;;;6.20;99.90;;;;;;5100090;28;19903;-88
2021/11/17 09:10:41;;;;;;;;;;;6.20;99.90;;;;;;5100737;28;19907;-89
2021/11/17 09:13:06;;;;;;;;;;;6.20;99.90;;;;;;5100581;28;20271;-88
2021/11/17 09:15:34;;;;;;;;;;;6.20;99.90;;;;;;5118986;28;19903;-89
2021/11/17 09:18:00;;;;;;;;;;;6.20;99.90;;;;;;5118730;28;20085;-88
2021/11/17 09:20:26;;;;;;;;;;;6.20;99.90;;;;;;5100359;28;19919;-89
2021/11/17 09:22:52;;;;;;;;;;;6.10;99.90;;;;;;5100708;28;19998;-89
2021/11/17 09:25:19;;;;;;;;;;;6.10;99.90;;;;;;5099964;28;19904;-88
2021/11/17 09:27:45;;;;;;;;;;;6.10;99.90;;;;;;5100933;28;19994;-88
2021/11/17 09:30:14;;;;;;;;;;;6.20;99.90;;;;;;5101179;28;19915;-88
2021/11/17 09:32:40;;;;;;;;;;;6.20;99.90;;;;;;5100196;28;20274;-89
2021/11/17 09:35:07;;;;;;;;;;;6.20;99.90;;;;;;5098850;28;19908;-89
2021/11/17 09:37:33;;;;;;;;;;;6.20;99.90;;;;;;5099848;28;19987;-88
2021/11/17 09:39:59;;;;;;;;;;;6.30;99.90;;;;;;5100175;28;19954;-89
2021/11/17 09:42:25;;;;;;;;;;;6.30;99.90;;;;;;5099448;28;19918;-89
2021/11/17 09:44:51;;;;;;;;;;;6.40;99.90;;;;;;5100212;28;19903;-89
2021/11/17 09:47:22;;;;;;;;;;;6.40;99.90;;;;;;5099704;28;20363;-89
2021/11/17 09:50:00;;;;;;;;;;;6.40;99.90;;;;;;5099748;28;19903;-89
2021/11/17 09:52:31;;;;;;;;;;;6.50;99.90;;;;;;5099669;28;20424;-88
2021/11/17 09:55:02;;;;;;;;;;;6.60;99.90;;;;;;5100629;28;20236;-89
2021/11/17 09:57:31;;;;;;;;;;;6.70;99.90;;;;;;5099954;28;19912;-88
2021/11/17 10:00:04;;;;;;;;;;;6.60;99.90;;;;;;5118205;28;19898;-89
2021/11/17 10:02:45;;;;;;;;;;;6.50;99.90;;;;;;5100206;28;19966;-89
2021/11/17 10:05:25;;;;;;;;;;;6.60;99.90;;;;;;5099999;28;20255;-89
2021/11/17 10:13:17;;;;;;;;;;;6.60;99.90;;;;;;5118885;28;19967;-90
2021/11/17 10:15:45;;;;;;;;;;;6.70;99.90;;;;;;5099825;28;19951;-84
2021/11/17 10:18:17;;;;;;;;;;;6.70;99.90;;;;;;5098726;28;19911;-86
2021/11/17 10:20:58;;;;;;;;;;;6.50;99.90;;;;;;5099677;28;19994;-89
2021/11/17 10:23:26;;;;;;;;;;;6.30;99.90;;;;;;5100015;28;19922;-88
2021/11/17 10:25:57;;;;;;;;;;;6.30;99.90;;;;;;5098786;28;19904;-88
2021/11/17 10:28:27;;;;;;;;;;;6.30;99.90;;;;;;5098635;28;19918;-89
2021/11/17 10:30:56;;;;;;;;;;;6.40;99.90;;;;;;5099276;28;19904;-89
2021/11/17 10:33:25;;;;;;;;;;;6.40;99.90;;;;;;5100068;28;19903;-89
2021/11/17 10:35:56;;;;;;;;;;;6.50;99.90;;;;;;5099459;28;19947;-88
2021/11/17 10:38:23;;;;;;;;;;;6.70;99.90;;;;;;5099238;28;19903;-88
2021/11/17 10:40:53;;;;;;;;;;;6.70;99.90;;;;;;5097703;28;19904;-85
2021/11/17 10:43:30;;;;;;;;;;;6.80;99.90;;;;;;5099068;28;19904;-86
2021/11/17 10:46:16;;;;;;;;;;;6.90;99.90;;;;;;5100572;28;19908;-87
2021/11/17 10:48:50;;;;;;;;;;;6.90;99.90;;;;;;5099706;28;19943;-87
2021/11/17 10:51:18;;;;;;;;;;;6.90;99.90;;;;;;5117638;28;19896;-86
2021/11/17 10:53:51;;;;;;;;;;;6.80;99.90;;;;;;5098089;28;19911;-87
2021/11/17 10:56:18;;;;;;;;;;;6.70;99.90;;;;;;5098323;28;20290;-86
2021/11/17 10:58:45;;;;;;;;;;;6.70;99.90;;;;;;5097287;28;19907;-86
2021/11/17 11:01:15;;;;;;;;;;;6.70;99.90;;;;;;5097727;28;19904;-86
2021/11/17 11:03:51;;;;;;;;;;;6.60;99.90;;;;;;5098354;28;20281;-86
2021/11/17 11:06:19;;;;;;;;;;;6.40;99.90;;;;;;5098053;28;19904;-86
2021/11/17 11:08:57;;;;;;;;;;;6.30;99.90;;;;;;5097963;28;20010;-86
2021/11/17 11:11:24;;;;;;;;;;;6.40;99.90;;;;;;5097671;28;19911;-86
2021/11/17 11:13:52;;;;;;;;;;;6.50;99.90;;;;;;5097770;28;20274;-86
2021/11/17 11:16:28;;;;;;;;;;;6.60;99.90;;;;;;5116367;28;19911;-86
2021/11/17 11:19:13;;;;;;;;;;;6.70;99.90;;;;;;5098264;28;19913;-87
2021/11/17 11:21:42;;;;;;;;;;;6.60;99.90;;;;;;5096523;28;20019;-86
2021/11/17 11:24:25;;;;;;;;;;;6.70;99.90;;;;;;5097981;28;19938;-86
2021/11/17 11:26:57;;;;;;;;;;;6.70;99.90;;;;;;5116258;28;19903;-86
2021/11/17 11:29:28;;;;;;;;;;;6.70;99.90;;;;;;5097866;28;19895;-87
2021/11/17 11:31:54;;;;;;;;;;;6.60;99.90;;;;;;5116222;28;19903;-87
2021/11/17 11:34:29;;;;;;;;;;;6.70;99.90;;;;;;5115437;28;20026;-87
2021/11/17 11:36:54;;;;;;;;;;;6.70;99.90;;;;;;5097820;28;19904;-86
2021/11/17 11:39:20;;;;;;;;;;;6.60;99.90;;;;;;5097239;28;19907;-86
2021/11/17 11:42:03;;;;;;;;;;;6.60;99.90;;;;;;5097704;28;20351;-86
2021/11/17 11:44:35;;;;;;;;;;;6.60;99.90;;;;;;5115999;28;20376;-86
2021/11/17 11:47:00;;;;;;;;;;;6.60;99.90;;;;;;5116144;28;19908;-86
2021/11/17 11:49:32;;;;;;;;;;;6.50;99.90;;;;;;5097480;28;19956;-86
2021/11/17 11:52:11;;;;;;;;;;;6.50;99.90;;;;;;5097201;28;19904;-86
2021/11/17 11:54:56;;;;;;;;;;;6.40;99.90;;;;;;5097464;28;20056;-86
2021/11/17 11:57:30;;;;;;;;;;;6.30;99.90;;;;;;5069468;28;19926;-86
2021/11/17 12:00:16;;;;;;;;;;;6.30;99.90;;;;;;5101257;28;19911;-86
2021/11/17 12:02:45;;;;;;;;;;;6.40;99.90;;;;;;5078821;28;20324;-85
2021/11/17 12:05:12;;;;;;;;;;;6.30;99.90;;;;;;5101705;28;19930;-87
2021/11/17 12:07:46;;;;;;;;;;;6.40;99.90;;;;;;5102263;28;19926;-86
2021/11/17 12:10:12;;;;;;;;;;;6.40;99.90;;;;;;5101935;28;19909;-86
2021/11/17 12:12:40;;;;;;;;;;;6.50;99.90;;;;;;5101614;28;19907;-86
2021/11/17 12:15:17;;;;;;;;;;;6.50;99.90;;;;;;5101030;28;19931;-87
2021/11/17 12:17:44;;;;;;;;;;;6.40;99.90;;;;;;5100691;28;19952;-86
2021/11/17 12:20:35;;;;;;;;;;;6.50;99.90;;;;;;5100715;28;19908;-86
2021/11/17 12:23:12;;;;;;;;;;;6.50;99.90;;;;;;5096240;28;19958;-86
2021/11/17 12:25:38;;;;;;;;;;;6.50;99.90;;;;;;5119320;28;19904;-86
2021/11/17 12:28:15;;;;;;;;;;;6.40;99.90;;;;;;5100738;28;20314;-86
2021/11/17 12:30:48;;;;;;;;;;;6.50;99.90;;;;;;5100828;28;20255;-86
2021/11/17 12:33:19;;;;;;;;;;;6.40;99.90;;;;;;5100923;28;19903;-86
2021/11/17 12:35:47;;;;;;;;;;;6.40;99.90;;;;;;5101012;28;20313;-86
2021/11/17 12:38:23;;;;;;;;;;;6.40;99.90;;;;;;5100857;28;19990;-85
2021/11/17 12:40:51;;;;;;;;;;;6.30;99.90;;;;;;5100714;28;19915;-85
2021/11/17 12:43:35;;;;;;;;;;;6.30;99.90;;;;;;5119059;28;19911;-86
2021/11/17 12:46:11;;;;;;;;;;;6.40;99.90;;;;;;5100612;28;19903;-86
2021/11/17 12:48:36;;;;;;;;;;;6.40;99.90;;;;;;5119092;28;20347;-86
2021/11/17 12:51:04;;;;;;;;;;;6.30;99.90;;;;;;5099827;28;19953;-86
2021/11/17 12:53:41;;;;;;;;;;;6.30;99.90;;;;;;5101815;28;19903;-85
2021/11/17 12:56:11;;;;;;;;;;;6.30;99.90;;;;;;5121651;28;20286;-85
2021/11/17 12:58:43;;;;;;;;;;;6.40;99.90;;;;;;5102379;28;19904;-86
2021/11/17 13:01:21;;;;;;;;;;;6.50;99.90;;;;;;5101015;28;19904;-86
2021/11/17 13:03:46;;;;;;;;;;;6.60;99.90;;;;;;5101148;28;19908;-85
2021/11/17 13:06:20;;;;;;;;;;;6.70;99.90;;;;;;5099630;28;19964;-86
2021/11/17 13:08:46;;;;;;;;;;;6.70;99.90;;;;;;5100887;28;20001;-86
2021/11/17 13:11:17;;;;;;;;;;;6.70;99.90;;;;;;5100337;28;19903;-86
2021/11/17 13:13:54;;;;;;;;;;;6.80;99.90;;;;;;5118654;28;19904;-86
2021/11/17 13:16:23;;;;;;;;;;;6.70;99.90;;;;;;5100329;28;19939;-86
2021/11/17 13:18:51;;;;;;;;;;;6.70;99.90;;;;;;5099922;28;19990;-86
2021/11/17 13:21:29;;;;;;;;;;;6.70;99.90;;;;;;5100172;28;19914;-86
2021/11/17 13:24:04;;;;;;;;;;;6.70;99.90;;;;;;5096915;28;19922;-85
2021/11/17 13:26:29;;;;;;;;;;;6.70;99.90;;;;;;5096638;28;19911;-86
2021/11/17 13:28:55;;;;;;;;;;;6.60;99.90;;;;;;5089574;28;19904;-85
2021/11/17 13:31:27;;;;;;;;;;;6.60;99.90;;;;;;5096655;28;19957;-85
2021/11/17 13:33:52;;;;;;;;;;;6.60;99.90;;;;;;5089003;28;19947;-86
2021/11/17 13:36:33;;;;;;;;;;;6.70;99.90;;;;;;5098078;28;20283;-85
2021/11/17 13:38:58;;;;;;;;;;;6.60;99.90;;;;;;5090045;28;19915;-85
2021/11/17 13:41:24;;;;;;;;;;;6.50;99.90;;;;;;5097838;28;19904;-86
2021/11/17 13:43:50;;;;;;;;;;;6.50;99.90;;;;;;5088736;28;20386;-86
2021/11/17 13:46:18;;;;;;;;;;;6.40;99.90;;;;;;5096035;28;20268;-86
2021/11/17 13:48:44;;;;;;;;;;;6.30;99.90;;;;;;5095975;28;19918;-86
2021/11/17 13:51:12;;;;;;;;;;;6.30;99.90;;;;;;5095986;28;19904;-86
2021/11/17 13:53:38;;;;;;;;;;;6.30;99.90;;;;;;5095382;28;20266;-86
2021/11/17 13:56:06;;;;;;;;;;;6.30;99.90;;;;;;5090299;28;19904;-86
2021/11/17 13:58:33;;;;;;;;;;;6.40;99.90;;;;;;5096268;28;19904;-85
2021/11/17 14:00:59;;;;;;;;;;;6.40;99.90;;;;;;5089823;28;20359;-85
2021/11/17 14:03:25;;;;;;;;;;;6.40;99.90;;;;;;5096045;28;19904;-86
2021/11/17 14:05:50;;;;;;;;;;;6.40;99.90;;;;;;5088245;28;19904;-85
2021/11/17 14:08:17;;;;;;;;;;;6.40;99.90;;;;;;5095907;28;19938;-86
2021/11/17 14:10:43;;;;;;;;;;;6.50;99.90;;;;;;5095204;28;19908;-86
2021/11/17 14:13:09;;;;;;;;;;;6.60;99.90;;;;;;5097197;28;19908;-86
2021/11/17 14:15:36;;;;;;;;;;;6.70;99.90;;;;;;5094585;28;19915;-86
2021/11/17 14:18:04;;;;;;;;;;;6.70;99.90;;;;;;5096859;28;19915;-85
2021/11/17 14:20:30;;;;;;;;;;;6.70;99.90;;;;;;5093001;28;20120;-86
2021/11/17 14:22:55;;;;;;;;;;;6.70;99.90;;;;;;5087878;28;19954;-82
2021/11/17 14:25:22;;;;;;;;;;;6.50;99.90;;;;;;5097440;28;19957;-85
2021/11/17 14:27:50;;;;;;;;;;;6.40;99.90;;;;;;5096266;28;19942;-85
2021/11/17 14:30:21;;;;;;;;;;;6.50;99.90;;;;;;5091300;28;19914;-85
2021/11/17 14:32:48;;;;;;;;;;;6.50;99.90;;;;;;5095525;28;19904;-86
2021/11/17 14:35:14;;;;;;;;;;;6.50;99.90;;;;;;5095350;28;19904;-86
2021/11/17 14:37:41;;;;;;;;;;;6.50;99.90;;;;;;5095364;28;20294;-85
2021/11/17 14:40:07;;;;;;;;;;;6.60;99.90;;;;;;5089777;28;20382;-86
2021/11/17 14:42:32;;;;;;;;;;;6.60;99.90;;;;;;5094976;28;19904;-86
2021/11/17 14:44:58;;;;;;;;;;;6.60;99.90;;;;;;5095373;28;19904;-85
2021/11/17 14:47:24;;;;;;;;;;;6.60;99.90;;;;;;5092886;28;20348;-85
2021/11/17 14:49:49;;;;;;;;;;;6.70;99.90;;;;;;5087918;28;19910;-86
2021/11/17 14:52:16;;;;;;;;;;;6.70;99.90;;;;;;5094851;28;19927;-86
2021/11/17 14:54:42;;;;;;;;;;;6.70;99.90;;;;;;5094643;28;19904;-85
2021/11/17 14:57:08;;;;;;;;;;;6.70;99.90;;;;;;5090030;28;19904;-86
2021/11/17 14:59:34;;;;;;;;;;;6.70;99.90;;;;;;5094699;28;20382;-86
2021/11/17 15:02:01;;;;;;;;;;;6.70;99.90;;;;;;5088569;28;19911;-86
2021/11/17 15:04:26;;;;;;;;;;;6.80;99.90;;;;;;5094077;28;19908;-86
2021/11/17 15:06:52;;;;;;;;;;;6.80;99.90;;;;;;5086813;28;19904;-85
2021/11/17 15:09:19;;;;;;;;;;;6.90;99.90;;;;;;5097213;28;19904;-85
2021/11/17 15:11:49;;;;;;;;;;;6.80;99.90;;;;;;5087874;28;19957;-86
2021/11/17 15:14:16;;;;;;;;;;;6.70;99.90;;;;;;5096392;28;19970;-85
2021/11/17 15:16:42;;;;;;;;;;;6.80;99.90;;;;;;5095878;28;20368;-85
2021/11/17 15:19:08;;;;;;;;;;;6.80;99.90;;;;;;5072011;28;19912;-85
2021/11/17 15:21:34;;;;;;;;;;;6.70;99.90;;;;;;5095553;28;20001;-86
2021/11/17 15:23:59;;;;;;;;;;;6.60;99.90;;;;;;5088300;28;19916;-86
2021/11/17 15:26:25;;;;;;;;;;;6.60;99.90;;;;;;5095410;28;19942;-86
2021/11/17 15:28:52;;;;;;;;;;;6.60;99.90;;;;;;5097725;28;19908;-86
2021/11/17 15:31:20;;;;;;;;;;;6.50;99.90;;;;;;5115905;28;19903;-86
2021/11/17 15:33:46;;;;;;;;;;;6.60;99.90;;;;;;5115172;28;19907;-85
2021/11/17 15:36:12;;;;;;;;;;;6.60;99.90;;;;;;5097122;28;19904;-85
2021/11/17 15:38:38;;;;;;;;;;;6.50;99.90;;;;;;5081133;28;20346;-85
2021/11/17 15:41:05;;;;;;;;;;;6.60;99.90;;;;;;5116632;28;19990;-85
2021/11/17 15:43:31;;;;;;;;;;;6.60;99.90;;;;;;5115915;28;19908;-85
2021/11/17 15:45:57;;;;;;;;;;;6.50;99.90;;;;;;5097878;28;19917;-86
2021/11/17 15:48:23;;;;;;;;;;;6.50;99.90;;;;;;5097860;28;19904;-85
2021/11/17 15:50:53;;;;;;;;;;;6.50;99.90;;;;;;5097476;28;20377;-85
2021/11/17 15:53:19;;;;;;;;;;;6.40;99.90;;;;;;5097343;28;19949;-85
2021/11/17 15:55:44;;;;;;;;;;;6.40;99.90;;;;;;5097629;28;19904;-85
2021/11/17 15:58:10;;;;;;;;;;;6.40;99.90;;;;;;5115880;28;19911;-86
2021/11/17 16:00:36;;;;;;;;;;;6.30;99.90;;;;;;5097306;28;19911;-85
2021/11/17 16:03:02;;;;;;;;;;;6.30;99.90;;;;;;5097271;28;19954;-85
2021/11/17 16:05:28;;;;;;;;;;;6.30;99.90;;;;;;5097301;28;19903;-85
2021/11/17 16:07:54;;;;;;;;;;;6.30;99.90;;;;;;5097269;28;19994;-84
2021/11/17 16:10:21;;;;;;;;;;;6.30;99.90;;;;;;5096574;28;19904;-85
2021/11/17 16:12:47;;;;;;;;;;;6.30;99.90;;;;;;5097082;28;19914;-86
2021/11/17 16:15:13;;;;;;;;;;;6.30;99.90;;;;;;5097307;28;19911;-86
2021/11/17 16:17:39;;;;;;;;;;;6.30;99.90;;;;;;5097272;28;19908;-86
2021/11/17 16:20:11;;;;;;;;;;;6.20;99.90;;;;;;5097111;28;20284;-85
2021/11/17 16:22:40;;;;;;;;;;;6.20;99.90;;;;;;5096972;28;19973;-85
2021/11/17 16:27:52;;;;;;;;;;;6.30;99.90;;;;;;5115870;28;19978;-85
2021/11/17 16:30:18;;;;;;;;;;;6.30;99.90;;;;;;5115307;28;20371;-86
2021/11/17 16:32:45;;;;;;;;;;;6.20;99.90;;;;;;5096214;28;20374;-86
2021/11/17 16:35:11;;;;;;;;;;;6.20;99.90;;;;;;5097170;28;19904;-86
2021/11/17 16:37:37;;;;;;;;;;;6.20;99.90;;;;;;5097043;28;19956;-85
2021/11/17 16:40:04;;;;;;;;;;;6.20;99.90;;;;;;5096614;28;19915;-86
2021/11/17 16:42:30;;;;;;;;;;;6.20;99.90;;;;;;5097376;28;20462;-86
2021/11/17 16:44:56;;;;;;;;;;;6.20;99.90;;;;;;5117980;28;19907;-86
2021/11/17 16:47:22;;;;;;;;;;;6.30;99.90;;;;;;5100716;28;19904;-85
2021/11/17 16:49:48;;;;;;;;;;;6.30;99.90;;;;;;5100025;28;19947;-85
2021/11/17 16:52:29;;;;;;;;;;;6.30;99.90;;;;;;5100655;28;20286;-85
2021/11/17 16:54:56;;;;;;;;;;;6.30;99.90;;;;;;5118699;28;19925;-85
2021/11/17 16:57:23;;;;;;;;;;;6.30;99.90;;;;;;5118507;28;19907;-86
2021/11/17 16:59:48;;;;;;;;;;;6.30;99.90;;;;;;5100029;28;19907;-84
2021/11/17 17:02:15;;;;;;;;;;;6.30;99.90;;;;;;5100044;28;19948;-86
2021/11/17 17:04:41;;;;;;;;;;;6.30;99.90;;;;;;5100294;28;19949;-85
2021/11/17 17:07:07;;;;;;;;;;;6.40;99.90;;;;;;5099892;28;20407;-86
2021/11/17 17:09:34;;;;;;;;;;;6.40;99.90;;;;;;5099531;28;20375;-85
2021/11/17 17:11:59;;;;;;;;;;;6.30;99.90;;;;;;5100004;28;20018;-86
2021/11/17 17:14:25;;;;;;;;;;;6.30;99.90;;;;;;5118643;28;20367;-85
2021/11/17 17:16:50;;;;;;;;;;;6.30;99.90;;;;;;5099825;28;19911;-86
2021/11/17 17:19:16;;;;;;;;;;;6.30;99.90;;;;;;5117365;28;19919;-85